sensor_id;sensor_type;location;lat;lon;timestamp;P1;durP1;ratioP1;P2;durP2;ratioP2
47762;SDS011;33526;42.690;23.322;2022-07-23T00:00:09;16.05;;;7.10;;
47762;SDS011;33526;42.690;23.322;2022-07-23T00:02:35;12.48;;;7.30;;
47762;SDS011;33526;42.690;23.322;2022-07-23T00:05:01;15.00;;;6.43;;
47762;SDS011;33526;42.690;23.322;2022-07-23T00:07:27;15.03;;;6.47;;
47762;SDS011;33526;42.690;23.322;2022-07-23T00:09:52;17.50;;;6.93;;
47762;SDS011;33526;42.690;23.322;2022-07-23T00:12:18;14.07;;;6.72;;
47762;SDS011;33526;42.690;23.322;2022-07-23T00:14:43;14.13;;;6.75;;
47762;SDS011;33526;42.690;23.322;2022-07-23T00:17:09;11.23;;;7.05;;
47762;SDS011;33526;42.690;23.322;2022-07-23T00:19:34;14.35;;;7.03;;
47762;SDS011;33526;42.690;23.322;2022-07-23T00:22:00;10.23;;;6.25;;
47762;SDS011;33526;42.690;23.322;2022-07-23T00:24:25;14.18;;;7.30;;
47762;SDS011;33526;42.690;23.322;2022-07-23T00:26:51;15.68;;;6.50;;
47762;SDS011;33526;42.690;23.322;2022-07-23T00:29:16;11.70;;;6.18;;
47762;SDS011;33526;42.690;23.322;2022-07-23T00:31:42;9.25;;;5.97;;
47762;SDS011;33526;42.690;23.322;2022-07-23T00:34:07;11.73;;;6.97;;
47762;SDS011;33526;42.690;23.322;2022-07-23T00:36:32;13.13;;;6.70;;
47762;SDS011;33526;42.690;23.322;2022-07-23T00:38:58;12.63;;;6.75;;
47762;SDS011;33526;42.690;23.322;2022-07-23T00:41:23;13.77;;;7.00;;
47762;SDS011;33526;42.690;23.322;2022-07-23T00:43:49;9.13;;;7.10;;
47762;SDS011;33526;42.690;23.322;2022-07-23T00:46:21;19.55;;;8.63;;
47762;SDS011;33526;42.690;23.322;2022-07-23T00:48:47;12.07;;;7.95;;
47762;SDS011;33526;42.690;23.322;2022-07-23T00:51:16;12.03;;;7.50;;
47762;SDS011;33526;42.690;23.322;2022-07-23T00:53:42;15.13;;;7.97;;
47762;SDS011;33526;42.690;23.322;2022-07-23T00:56:09;11.02;;;7.28;;
47762;SDS011;33526;42.690;23.322;2022-07-23T00:58:35;13.88;;;7.72;;
47762;SDS011;33526;42.690;23.322;2022-07-23T01:01:01;15.07;;;7.40;;
47762;SDS011;33526;42.690;23.322;2022-07-23T01:05:54;12.95;;;6.63;;
47762;SDS011;33526;42.690;23.322;2022-07-23T01:08:19;13.15;;;7.07;;
47762;SDS011;33526;42.690;23.322;2022-07-23T01:10:46;11.88;;;6.70;;
47762;SDS011;33526;42.690;23.322;2022-07-23T01:13:13;9.10;;;6.25;;
47762;SDS011;33526;42.690;23.322;2022-07-23T01:15:38;9.57;;;6.80;;
47762;SDS011;33526;42.690;23.322;2022-07-23T01:18:04;12.55;;;6.60;;
47762;SDS011;33526;42.690;23.322;2022-07-23T01:20:31;13.43;;;7.10;;
47762;SDS011;33526;42.690;23.322;2022-07-23T01:22:58;12.70;;;6.25;;
47762;SDS011;33526;42.690;23.322;2022-07-23T01:25:24;8.60;;;6.35;;
47762;SDS011;33526;42.690;23.322;2022-07-23T01:27:51;10.20;;;6.68;;
47762;SDS011;33526;42.690;23.322;2022-07-23T01:30:17;11.55;;;6.78;;
47762;SDS011;33526;42.690;23.322;2022-07-23T01:32:43;13.43;;;6.13;;
47762;SDS011;33526;42.690;23.322;2022-07-23T01:35:09;12.80;;;6.50;;
47762;SDS011;33526;42.690;23.322;2022-07-23T01:37:35;11.00;;;5.95;;
47762;SDS011;33526;42.690;23.322;2022-07-23T01:40:01;18.35;;;6.03;;
47762;SDS011;33526;42.690;23.322;2022-07-23T01:42:26;14.23;;;6.63;;
47762;SDS011;33526;42.690;23.322;2022-07-23T01:44:52;8.90;;;5.93;;
47762;SDS011;33526;42.690;23.322;2022-07-23T01:47:18;10.10;;;6.45;;
47762;SDS011;33526;42.690;23.322;2022-07-23T01:49:43;11.98;;;6.15;;
47762;SDS011;33526;42.690;23.322;2022-07-23T01:52:09;12.40;;;6.13;;
47762;SDS011;33526;42.690;23.322;2022-07-23T01:54:36;8.98;;;5.82;;
47762;SDS011;33526;42.690;23.322;2022-07-23T01:57:03;11.80;;;5.60;;
47762;SDS011;33526;42.690;23.322;2022-07-23T01:59:29;9.98;;;6.15;;
47762;SDS011;33526;42.690;23.322;2022-07-23T02:01:55;14.85;;;6.72;;
47762;SDS011;33526;42.690;23.322;2022-07-23T02:04:21;9.98;;;6.05;;
47762;SDS011;33526;42.690;23.322;2022-07-23T02:06:47;8.95;;;6.05;;
47762;SDS011;33526;42.690;23.322;2022-07-23T02:11:40;11.55;;;8.48;;
47762;SDS011;33526;42.690;23.322;2022-07-23T02:14:06;11.95;;;6.85;;
47762;SDS011;33526;42.690;23.322;2022-07-23T02:16:32;12.68;;;5.82;;
47762;SDS011;33526;42.690;23.322;2022-07-23T02:18:58;9.13;;;6.05;;
47762;SDS011;33526;42.690;23.322;2022-07-23T02:21:23;12.18;;;6.35;;
47762;SDS011;33526;42.690;23.322;2022-07-23T02:23:49;12.52;;;5.80;;
47762;SDS011;33526;42.690;23.322;2022-07-23T02:26:15;8.13;;;5.90;;
47762;SDS011;33526;42.690;23.322;2022-07-23T02:28:40;8.57;;;6.03;;
47762;SDS011;33526;42.690;23.322;2022-07-23T02:31:06;11.75;;;6.40;;
47762;SDS011;33526;42.690;23.322;2022-07-23T02:33:32;9.13;;;6.75;;
47762;SDS011;33526;42.690;23.322;2022-07-23T02:35:58;13.23;;;6.15;;
47762;SDS011;33526;42.690;23.322;2022-07-23T02:38:24;11.50;;;6.97;;
47762;SDS011;33526;42.690;23.322;2022-07-23T02:40:50;14.40;;;7.00;;
47762;SDS011;33526;42.690;23.322;2022-07-23T02:43:16;16.08;;;7.00;;
47762;SDS011;33526;42.690;23.322;2022-07-23T02:45:41;12.55;;;6.55;;
47762;SDS011;33526;42.690;23.322;2022-07-23T02:48:07;15.25;;;7.30;;
47762;SDS011;33526;42.690;23.322;2022-07-23T02:50:32;13.20;;;7.60;;
47762;SDS011;33526;42.690;23.322;2022-07-23T02:52:58;14.38;;;8.05;;
47762;SDS011;33526;42.690;23.322;2022-07-23T02:55:23;11.32;;;7.85;;
47762;SDS011;33526;42.690;23.322;2022-07-23T02:57:49;10.93;;;7.28;;
47762;SDS011;33526;42.690;23.322;2022-07-23T03:00:14;14.52;;;7.68;;
47762;SDS011;33526;42.690;23.322;2022-07-23T03:02:40;12.27;;;7.60;;
47762;SDS011;33526;42.690;23.322;2022-07-23T03:05:05;12.00;;;7.65;;
47762;SDS011;33526;42.690;23.322;2022-07-23T03:07:31;16.42;;;8.02;;
47762;SDS011;33526;42.690;23.322;2022-07-23T03:09:57;12.25;;;7.35;;
47762;SDS011;33526;42.690;23.322;2022-07-23T03:12:22;11.73;;;7.72;;
47762;SDS011;33526;42.690;23.322;2022-07-23T03:14:48;16.20;;;7.50;;
47762;SDS011;33526;42.690;23.322;2022-07-23T03:17:13;12.00;;;7.30;;
47762;SDS011;33526;42.690;23.322;2022-07-23T03:19:39;16.23;;;7.40;;
47762;SDS011;33526;42.690;23.322;2022-07-23T03:22:04;13.35;;;7.55;;
47762;SDS011;33526;42.690;23.322;2022-07-23T03:24:30;12.80;;;7.55;;
47762;SDS011;33526;42.690;23.322;2022-07-23T03:27:14;16.35;;;8.88;;
47762;SDS011;33526;42.690;23.322;2022-07-23T03:29:40;9.75;;;7.78;;
47762;SDS011;33526;42.690;23.322;2022-07-23T03:32:06;13.35;;;8.00;;
47762;SDS011;33526;42.690;23.322;2022-07-23T03:34:31;12.30;;;7.32;;
47762;SDS011;33526;42.690;23.322;2022-07-23T03:36:57;14.95;;;8.52;;
47762;SDS011;33526;42.690;23.322;2022-07-23T03:39:22;16.98;;;8.27;;
47762;SDS011;33526;42.690;23.322;2022-07-23T03:41:48;16.25;;;7.85;;
47762;SDS011;33526;42.690;23.322;2022-07-23T03:44:13;12.38;;;7.70;;
47762;SDS011;33526;42.690;23.322;2022-07-23T03:46:39;9.88;;;7.22;;
47762;SDS011;33526;42.690;23.322;2022-07-23T03:49:04;14.30;;;7.35;;
47762;SDS011;33526;42.690;23.322;2022-07-23T03:51:29;13.48;;;8.23;;
47762;SDS011;33526;42.690;23.322;2022-07-23T03:53:55;11.52;;;8.07;;
47762;SDS011;33526;42.690;23.322;2022-07-23T03:56:20;19.42;;;8.52;;
47762;SDS011;33526;42.690;23.322;2022-07-23T03:58:46;15.65;;;8.52;;
47762;SDS011;33526;42.690;23.322;2022-07-23T04:01:11;14.75;;;8.15;;
47762;SDS011;33526;42.690;23.322;2022-07-23T04:03:37;13.55;;;8.52;;
47762;SDS011;33526;42.690;23.322;2022-07-23T04:06:02;13.00;;;7.70;;
47762;SDS011;33526;42.690;23.322;2022-07-23T04:08:29;11.70;;;8.02;;
47762;SDS011;33526;42.690;23.322;2022-07-23T04:10:55;20.58;;;8.40;;
47762;SDS011;33526;42.690;23.322;2022-07-23T04:13:20;14.25;;;7.88;;
47762;SDS011;33526;42.690;23.322;2022-07-23T04:15:48;16.00;;;7.63;;
47762;SDS011;33526;42.690;23.322;2022-07-23T04:18:15;10.45;;;7.78;;
47762;SDS011;33526;42.690;23.322;2022-07-23T04:20:42;17.48;;;8.38;;
47762;SDS011;33526;42.690;23.322;2022-07-23T04:23:08;12.50;;;8.13;;
47762;SDS011;33526;42.690;23.322;2022-07-23T04:25:34;14.50;;;7.90;;
47762;SDS011;33526;42.690;23.322;2022-07-23T04:28:00;15.57;;;7.93;;
47762;SDS011;33526;42.690;23.322;2022-07-23T04:30:26;19.10;;;7.88;;
47762;SDS011;33526;42.690;23.322;2022-07-23T04:32:51;17.70;;;8.10;;
47762;SDS011;33526;42.690;23.322;2022-07-23T04:35:18;13.52;;;8.05;;
47762;SDS011;33526;42.690;23.322;2022-07-23T04:37:44;11.65;;;7.82;;
47762;SDS011;33526;42.690;23.322;2022-07-23T04:40:10;12.57;;;8.18;;
47762;SDS011;33526;42.690;23.322;2022-07-23T04:42:36;12.85;;;7.28;;
47762;SDS011;33526;42.690;23.322;2022-07-23T04:45:04;12.43;;;7.30;;
47762;SDS011;33526;42.690;23.322;2022-07-23T04:47:29;14.52;;;7.97;;
47762;SDS011;33526;42.690;23.322;2022-07-23T04:49:55;15.70;;;8.88;;
47762;SDS011;33526;42.690;23.322;2022-07-23T04:52:21;12.27;;;7.72;;
47762;SDS011;33526;42.690;23.322;2022-07-23T04:54:47;13.30;;;7.63;;
47762;SDS011;33526;42.690;23.322;2022-07-23T04:57:12;10.60;;;6.90;;
47762;SDS011;33526;42.690;23.322;2022-07-23T04:59:38;11.25;;;7.85;;
47762;SDS011;33526;42.690;23.322;2022-07-23T05:02:03;12.20;;;7.70;;
47762;SDS011;33526;42.690;23.322;2022-07-23T05:04:29;13.02;;;6.90;;
47762;SDS011;33526;42.690;23.322;2022-07-23T05:09:21;13.13;;;8.45;;
47762;SDS011;33526;42.690;23.322;2022-07-23T05:11:47;14.77;;;9.05;;
47762;SDS011;33526;42.690;23.322;2022-07-23T05:14:13;14.45;;;7.50;;
47762;SDS011;33526;42.690;23.322;2022-07-23T05:16:38;11.48;;;7.53;;
47762;SDS011;33526;42.690;23.322;2022-07-23T05:19:04;15.73;;;7.95;;
47762;SDS011;33526;42.690;23.322;2022-07-23T05:21:31;11.50;;;7.70;;
47762;SDS011;33526;42.690;23.322;2022-07-23T05:23:57;10.20;;;6.85;;
47762;SDS011;33526;42.690;23.322;2022-07-23T05:26:22;14.38;;;7.93;;
47762;SDS011;33526;42.690;23.322;2022-07-23T05:28:48;16.00;;;7.95;;
47762;SDS011;33526;42.690;23.322;2022-07-23T05:31:13;19.70;;;7.77;;
47762;SDS011;33526;42.690;23.322;2022-07-23T05:33:39;10.00;;;7.68;;
47762;SDS011;33526;42.690;23.322;2022-07-23T05:36:05;11.97;;;7.30;;
47762;SDS011;33526;42.690;23.322;2022-07-23T05:38:31;11.50;;;7.50;;
47762;SDS011;33526;42.690;23.322;2022-07-23T05:40:57;16.88;;;8.02;;
47762;SDS011;33526;42.690;23.322;2022-07-23T05:43:23;10.93;;;7.50;;
47762;SDS011;33526;42.690;23.322;2022-07-23T05:45:48;15.67;;;8.17;;
47762;SDS011;33526;42.690;23.322;2022-07-23T05:48:14;12.40;;;7.38;;
47762;SDS011;33526;42.690;23.322;2022-07-23T05:50:41;18.38;;;8.10;;
47762;SDS011;33526;42.690;23.322;2022-07-23T05:53:06;11.25;;;7.78;;
47762;SDS011;33526;42.690;23.322;2022-07-23T05:55:32;14.30;;;7.67;;
47762;SDS011;33526;42.690;23.322;2022-07-23T05:57:58;19.33;;;9.17;;
47762;SDS011;33526;42.690;23.322;2022-07-23T06:00:24;15.60;;;7.90;;
47762;SDS011;33526;42.690;23.322;2022-07-23T06:02:50;14.95;;;8.25;;
47762;SDS011;33526;42.690;23.322;2022-07-23T06:05:16;13.00;;;8.20;;
47762;SDS011;33526;42.690;23.322;2022-07-23T06:07:42;20.83;;;9.53;;
47762;SDS011;33526;42.690;23.322;2022-07-23T06:10:07;17.50;;;9.00;;
47762;SDS011;33526;42.690;23.322;2022-07-23T06:12:35;11.77;;;8.48;;
47762;SDS011;33526;42.690;23.322;2022-07-23T06:15:01;15.07;;;8.20;;
47762;SDS011;33526;42.690;23.322;2022-07-23T06:17:28;13.75;;;8.43;;
47762;SDS011;33526;42.690;23.322;2022-07-23T06:19:54;11.13;;;7.07;;
47762;SDS011;33526;42.690;23.322;2022-07-23T06:22:20;15.02;;;7.13;;
47762;SDS011;33526;42.690;23.322;2022-07-23T06:24:46;11.53;;;7.30;;
47762;SDS011;33526;42.690;23.322;2022-07-23T06:27:11;15.70;;;8.00;;
47762;SDS011;33526;42.690;23.322;2022-07-23T06:29:37;13.30;;;7.77;;
47762;SDS011;33526;42.690;23.322;2022-07-23T06:32:02;13.37;;;7.03;;
47762;SDS011;33526;42.690;23.322;2022-07-23T06:34:28;12.20;;;8.37;;
47762;SDS011;33526;42.690;23.322;2022-07-23T06:36:54;11.82;;;8.02;;
47762;SDS011;33526;42.690;23.322;2022-07-23T06:39:20;15.23;;;7.70;;
47762;SDS011;33526;42.690;23.322;2022-07-23T06:41:45;13.07;;;7.43;;
47762;SDS011;33526;42.690;23.322;2022-07-23T06:44:11;14.23;;;7.60;;
47762;SDS011;33526;42.690;23.322;2022-07-23T06:46:37;15.77;;;7.33;;
47762;SDS011;33526;42.690;23.322;2022-07-23T06:49:03;11.43;;;6.78;;
47762;SDS011;33526;42.690;23.322;2022-07-23T06:51:29;15.65;;;8.45;;
47762;SDS011;33526;42.690;23.322;2022-07-23T06:53:56;11.82;;;7.57;;
47762;SDS011;33526;42.690;23.322;2022-07-23T06:56:21;14.82;;;7.25;;
47762;SDS011;33526;42.690;23.322;2022-07-23T06:58:47;14.68;;;7.93;;
47762;SDS011;33526;42.690;23.322;2022-07-23T07:01:12;20.90;;;7.87;;
47762;SDS011;33526;42.690;23.322;2022-07-23T07:03:38;13.43;;;6.68;;
47762;SDS011;33526;42.690;23.322;2022-07-23T07:06:03;15.57;;;7.10;;
47762;SDS011;33526;42.690;23.322;2022-07-23T07:08:29;15.27;;;6.68;;
47762;SDS011;33526;42.690;23.322;2022-07-23T07:10:55;10.67;;;6.40;;
47762;SDS011;33526;42.690;23.322;2022-07-23T07:13:20;16.23;;;8.07;;
47762;SDS011;33526;42.690;23.322;2022-07-23T07:15:46;16.70;;;6.70;;
47762;SDS011;33526;42.690;23.322;2022-07-23T07:18:11;10.63;;;6.37;;
47762;SDS011;33526;42.690;23.322;2022-07-23T07:20:37;12.70;;;6.63;;
47762;SDS011;33526;42.690;23.322;2022-07-23T07:23:02;14.27;;;7.47;;
47762;SDS011;33526;42.690;23.322;2022-07-23T07:25:28;14.33;;;6.70;;
47762;SDS011;33526;42.690;23.322;2022-07-23T07:27:53;10.70;;;6.57;;
47762;SDS011;33526;42.690;23.322;2022-07-23T07:30:19;11.90;;;7.28;;
47762;SDS011;33526;42.690;23.322;2022-07-23T07:32:44;12.47;;;6.83;;
47762;SDS011;33526;42.690;23.322;2022-07-23T07:35:10;10.87;;;6.63;;
47762;SDS011;33526;42.690;23.322;2022-07-23T07:37:36;13.18;;;6.65;;
47762;SDS011;33526;42.690;23.322;2022-07-23T07:40:02;12.47;;;6.97;;
47762;SDS011;33526;42.690;23.322;2022-07-23T07:42:34;11.85;;;6.95;;
47762;SDS011;33526;42.690;23.322;2022-07-23T07:45:00;13.13;;;6.45;;
47762;SDS011;33526;42.690;23.322;2022-07-23T07:47:26;16.90;;;7.57;;
47762;SDS011;33526;42.690;23.322;2022-07-23T07:49:51;15.40;;;6.13;;
47762;SDS011;33526;42.690;23.322;2022-07-23T07:52:18;15.02;;;6.93;;
47762;SDS011;33526;42.690;23.322;2022-07-23T07:54:44;13.33;;;6.83;;
47762;SDS011;33526;42.690;23.322;2022-07-23T07:57:09;13.37;;;7.60;;
47762;SDS011;33526;42.690;23.322;2022-07-23T07:59:35;15.10;;;7.23;;
47762;SDS011;33526;42.690;23.322;2022-07-23T08:02:00;14.00;;;7.93;;
47762;SDS011;33526;42.690;23.322;2022-07-23T08:04:26;20.10;;;6.57;;
47762;SDS011;33526;42.690;23.322;2022-07-23T08:06:52;9.13;;;6.40;;
47762;SDS011;33526;42.690;23.322;2022-07-23T08:09:17;12.03;;;6.97;;
47762;SDS011;33526;42.690;23.322;2022-07-23T08:11:43;12.20;;;7.00;;
47762;SDS011;33526;42.690;23.322;2022-07-23T08:14:08;12.67;;;6.93;;
47762;SDS011;33526;42.690;23.322;2022-07-23T08:16:36;16.20;;;7.10;;
47762;SDS011;33526;42.690;23.322;2022-07-23T08:19:01;14.50;;;7.50;;
47762;SDS011;33526;42.690;23.322;2022-07-23T08:21:30;15.70;;;8.15;;
47762;SDS011;33526;42.690;23.322;2022-07-23T08:23:57;13.97;;;7.00;;
47762;SDS011;33526;42.690;23.322;2022-07-23T08:26:22;15.88;;;7.35;;
47762;SDS011;33526;42.690;23.322;2022-07-23T08:28:48;12.00;;;6.93;;
47762;SDS011;33526;42.690;23.322;2022-07-23T08:31:13;12.10;;;7.03;;
47762;SDS011;33526;42.690;23.322;2022-07-23T08:33:41;12.73;;;6.93;;
47762;SDS011;33526;42.690;23.322;2022-07-23T08:36:07;19.40;;;7.63;;
47762;SDS011;33526;42.690;23.322;2022-07-23T08:38:33;13.82;;;7.50;;
47762;SDS011;33526;42.690;23.322;2022-07-23T08:40:59;22.80;;;10.85;;
47762;SDS011;33526;42.690;23.322;2022-07-23T08:43:25;10.80;;;7.50;;
47762;SDS011;33526;42.690;23.322;2022-07-23T08:45:55;13.55;;;7.65;;
47762;SDS011;33526;42.690;23.322;2022-07-23T08:48:33;13.20;;;7.28;;
47762;SDS011;33526;42.690;23.322;2022-07-23T08:51:02;14.88;;;7.72;;
47762;SDS011;33526;42.690;23.322;2022-07-23T08:53:29;13.85;;;6.75;;
47762;SDS011;33526;42.690;23.322;2022-07-23T08:55:57;11.98;;;7.32;;
47762;SDS011;33526;42.690;23.322;2022-07-23T08:58:26;15.90;;;8.18;;
47762;SDS011;33526;42.690;23.322;2022-07-23T09:00:52;9.90;;;7.23;;
47762;SDS011;33526;42.690;23.322;2022-07-23T09:03:19;15.80;;;6.87;;
47762;SDS011;33526;42.690;23.322;2022-07-23T09:05:46;19.23;;;6.65;;
47762;SDS011;33526;42.690;23.322;2022-07-23T09:08:13;10.70;;;6.57;;
47762;SDS011;33526;42.690;23.322;2022-07-23T09:10:43;15.90;;;9.23;;
47762;SDS011;33526;42.690;23.322;2022-07-23T09:18:37;15.05;;;6.95;;
47762;SDS011;33526;42.690;23.322;2022-07-23T09:21:12;15.20;;;6.95;;
47762;SDS011;33526;42.690;23.322;2022-07-23T09:23:56;18.45;;;7.25;;
47762;SDS011;33526;42.690;23.322;2022-07-23T09:28:59;13.70;;;6.77;;
47762;SDS011;33526;42.690;23.322;2022-07-23T09:31:32;9.95;;;6.20;;
47762;SDS011;33526;42.690;23.322;2022-07-23T09:34:13;12.23;;;6.43;;
47762;SDS011;33526;42.690;23.322;2022-07-23T09:36:39;16.75;;;6.40;;
47762;SDS011;33526;42.690;23.322;2022-07-23T09:39:05;14.30;;;6.57;;
47762;SDS011;33526;42.690;23.322;2022-07-23T09:41:35;10.35;;;6.90;;
47762;SDS011;33526;42.690;23.322;2022-07-23T09:44:13;10.60;;;6.88;;
47762;SDS011;33526;42.690;23.322;2022-07-23T09:46:46;8.82;;;5.88;;
47762;SDS011;33526;42.690;23.322;2022-07-23T09:49:20;12.80;;;6.00;;
47762;SDS011;33526;42.690;23.322;2022-07-23T09:51:49;10.07;;;6.13;;
47762;SDS011;33526;42.690;23.322;2022-07-23T09:54:20;11.77;;;7.10;;
47762;SDS011;33526;42.690;23.322;2022-07-23T09:56:49;9.90;;;6.13;;
47762;SDS011;33526;42.690;23.322;2022-07-23T09:59:16;13.25;;;6.10;;
47762;SDS011;33526;42.690;23.322;2022-07-23T10:01:44;14.90;;;10.65;;
47762;SDS011;33526;42.690;23.322;2022-07-23T10:04:11;11.55;;;6.55;;
47762;SDS011;33526;42.690;23.322;2022-07-23T10:09:07;19.55;;;5.88;;
47762;SDS011;33526;42.690;23.322;2022-07-23T10:11:37;13.15;;;5.25;;
47762;SDS011;33526;42.690;23.322;2022-07-23T10:14:03;10.45;;;5.22;;
47762;SDS011;33526;42.690;23.322;2022-07-23T10:16:34;10.05;;;5.72;;
47762;SDS011;33526;42.690;23.322;2022-07-23T10:18:59;10.45;;;4.80;;
47762;SDS011;33526;42.690;23.322;2022-07-23T10:21:36;8.67;;;4.77;;
47762;SDS011;33526;42.690;23.322;2022-07-23T10:24:16;11.52;;;5.40;;
47762;SDS011;33526;42.690;23.322;2022-07-23T10:27:05;11.68;;;5.07;;
47762;SDS011;33526;42.690;23.322;2022-07-23T10:41:30;12.90;;;5.45;;
47762;SDS011;33526;42.690;23.322;2022-07-23T10:44:09;16.42;;;5.90;;
47762;SDS011;33526;42.690;23.322;2022-07-23T10:47:11;13.70;;;5.68;;
47762;SDS011;33526;42.690;23.322;2022-07-23T10:49:36;13.55;;;8.60;;
47762;SDS011;33526;42.690;23.322;2022-07-23T10:54:43;12.60;;;4.97;;
47762;SDS011;33526;42.690;23.322;2022-07-23T10:57:14;17.48;;;5.70;;
47762;SDS011;33526;42.690;23.322;2022-07-23T11:00:23;7.57;;;4.68;;
47762;SDS011;33526;42.690;23.322;2022-07-23T11:02:34;16.80;;;5.43;;
47762;SDS011;33526;42.690;23.322;2022-07-23T11:05:10;12.50;;;5.10;;
47762;SDS011;33526;42.690;23.322;2022-07-23T11:08:23;13.07;;;4.72;;
47762;SDS011;33526;42.690;23.322;2022-07-23T11:31:57;9.02;;;4.07;;
47762;SDS011;33526;42.690;23.322;2022-07-23T11:36:56;15.75;;;5.55;;
47762;SDS011;33526;42.690;23.322;2022-07-23T11:39:22;18.08;;;4.47;;
47762;SDS011;33526;42.690;23.322;2022-07-23T11:41:51;12.35;;;4.13;;
47762;SDS011;33526;42.690;23.322;2022-07-23T11:44:27;13.90;;;4.15;;
47762;SDS011;33526;42.690;23.322;2022-07-23T11:49:28;13.82;;;4.45;;
47762;SDS011;33526;42.690;23.322;2022-07-23T11:54:32;16.90;;;5.22;;
47762;SDS011;33526;42.690;23.322;2022-07-23T11:56:59;14.25;;;5.10;;
47762;SDS011;33526;42.690;23.322;2022-07-23T11:59:31;10.95;;;4.50;;
47762;SDS011;33526;42.690;23.322;2022-07-23T12:01:59;17.38;;;4.90;;
47762;SDS011;33526;42.690;23.322;2022-07-23T12:04:41;11.63;;;4.50;;
47762;SDS011;33526;42.690;23.322;2022-07-23T12:12:44;12.27;;;5.47;;
47762;SDS011;33526;42.690;23.322;2022-07-23T12:15:18;15.30;;;4.72;;
47762;SDS011;33526;42.690;23.322;2022-07-23T12:17:48;15.30;;;4.82;;
47762;SDS011;33526;42.690;23.322;2022-07-23T12:20:18;14.68;;;4.65;;
47762;SDS011;33526;42.690;23.322;2022-07-23T12:22:48;22.05;;;6.28;;
47762;SDS011;33526;42.690;23.322;2022-07-23T12:25:17;15.80;;;5.30;;
47762;SDS011;33526;42.690;23.322;2022-07-23T12:27:58;17.30;;;4.85;;
47762;SDS011;33526;42.690;23.322;2022-07-23T12:30:24;13.45;;;4.80;;
47762;SDS011;33526;42.690;23.322;2022-07-23T12:32:54;12.63;;;4.45;;
47762;SDS011;33526;42.690;23.322;2022-07-23T12:35:22;16.27;;;4.70;;
47762;SDS011;33526;42.690;23.322;2022-07-23T12:37:58;14.05;;;5.40;;
47762;SDS011;33526;42.690;23.322;2022-07-23T12:40:30;11.68;;;5.40;;
47762;SDS011;33526;42.690;23.322;2022-07-23T12:43:10;18.50;;;7.40;;
47762;SDS011;33526;42.690;23.322;2022-07-23T12:45:54;14.05;;;5.28;;
47762;SDS011;33526;42.690;23.322;2022-07-23T12:48:28;16.02;;;6.15;;
47762;SDS011;33526;42.690;23.322;2022-07-23T12:53:24;15.02;;;5.30;;
47762;SDS011;33526;42.690;23.322;2022-07-23T12:55:59;12.02;;;5.53;;
47762;SDS011;33526;42.690;23.322;2022-07-23T13:03:57;13.23;;;4.88;;
47762;SDS011;33526;42.690;23.322;2022-07-23T13:06:24;14.38;;;4.93;;
47762;SDS011;33526;42.690;23.322;2022-07-23T13:08:51;15.82;;;5.97;;
47762;SDS011;33526;42.690;23.322;2022-07-23T13:11:16;14.13;;;5.10;;
47762;SDS011;33526;42.690;23.322;2022-07-23T13:13:42;14.83;;;3.97;;
47762;SDS011;33526;42.690;23.322;2022-07-23T13:16:07;19.80;;;4.73;;
47762;SDS011;33526;42.690;23.322;2022-07-23T13:18:33;14.27;;;4.72;;
47762;SDS011;33526;42.690;23.322;2022-07-23T13:21:05;13.30;;;4.60;;
47762;SDS011;33526;42.690;23.322;2022-07-23T13:23:31;17.85;;;5.28;;
47762;SDS011;33526;42.690;23.322;2022-07-23T13:25:56;15.10;;;4.73;;
47762;SDS011;33526;42.690;23.322;2022-07-23T13:28:22;17.73;;;5.60;;
47762;SDS011;33526;42.690;23.322;2022-07-23T13:30:48;12.20;;;5.10;;
47762;SDS011;33526;42.690;23.322;2022-07-23T13:33:16;16.00;;;4.97;;
47762;SDS011;33526;42.690;23.322;2022-07-23T13:35:43;15.85;;;4.88;;
47762;SDS011;33526;42.690;23.322;2022-07-23T13:38:09;11.75;;;5.00;;
47762;SDS011;33526;42.690;23.322;2022-07-23T13:40:38;13.50;;;4.97;;
47762;SDS011;33526;42.690;23.322;2022-07-23T13:43:07;14.60;;;4.57;;
47762;SDS011;33526;42.690;23.322;2022-07-23T13:45:37;10.05;;;4.28;;
47762;SDS011;33526;42.690;23.322;2022-07-23T13:48:04;16.98;;;4.85;;
47762;SDS011;33526;42.690;23.322;2022-07-23T13:50:30;12.80;;;4.38;;
47762;SDS011;33526;42.690;23.322;2022-07-23T13:52:55;11.83;;;4.53;;
47762;SDS011;33526;42.690;23.322;2022-07-23T13:55:21;19.80;;;5.00;;
47762;SDS011;33526;42.690;23.322;2022-07-23T13:57:47;12.02;;;4.80;;
47762;SDS011;33526;42.690;23.322;2022-07-23T14:00:12;8.93;;;3.93;;
47762;SDS011;33526;42.690;23.322;2022-07-23T14:02:39;11.70;;;4.13;;
47762;SDS011;33526;42.690;23.322;2022-07-23T14:05:06;14.95;;;4.72;;
47762;SDS011;33526;42.690;23.322;2022-07-23T14:07:34;12.65;;;4.50;;
47762;SDS011;33526;42.690;23.322;2022-07-23T14:10:01;12.48;;;5.63;;
47762;SDS011;33526;42.690;23.322;2022-07-23T14:12:27;12.75;;;5.38;;
47762;SDS011;33526;42.690;23.322;2022-07-23T14:14:54;33.28;;;15.23;;
47762;SDS011;33526;42.690;23.322;2022-07-23T14:17:20;10.53;;;4.37;;
47762;SDS011;33526;42.690;23.322;2022-07-23T14:19:52;14.00;;;4.75;;
47762;SDS011;33526;42.690;23.322;2022-07-23T14:22:17;12.77;;;4.83;;
47762;SDS011;33526;42.690;23.322;2022-07-23T14:24:43;18.63;;;4.93;;
47762;SDS011;33526;42.690;23.322;2022-07-23T14:27:09;10.10;;;4.40;;
47762;SDS011;33526;42.690;23.322;2022-07-23T14:29:34;15.33;;;4.37;;
47762;SDS011;33526;42.690;23.322;2022-07-23T14:32:00;14.68;;;4.32;;
47762;SDS011;33526;42.690;23.322;2022-07-23T14:34:27;16.15;;;4.28;;
47762;SDS011;33526;42.690;23.322;2022-07-23T14:36:52;17.00;;;4.20;;
47762;SDS011;33526;42.690;23.322;2022-07-23T14:39:18;11.95;;;4.45;;
47762;SDS011;33526;42.690;23.322;2022-07-23T14:41:44;11.30;;;4.63;;
47762;SDS011;33526;42.690;23.322;2022-07-23T14:44:10;18.05;;;4.53;;
47762;SDS011;33526;42.690;23.322;2022-07-23T14:46:35;15.57;;;5.23;;
47762;SDS011;33526;42.690;23.322;2022-07-23T14:49:02;10.05;;;3.97;;
47762;SDS011;33526;42.690;23.322;2022-07-23T14:51:30;9.48;;;4.38;;
47762;SDS011;33526;42.690;23.322;2022-07-23T14:53:56;11.00;;;3.92;;
47762;SDS011;33526;42.690;23.322;2022-07-23T14:56:21;18.20;;;4.63;;
47762;SDS011;33526;42.690;23.322;2022-07-23T14:58:47;10.53;;;4.57;;
47762;SDS011;33526;42.690;23.322;2022-07-23T15:01:14;15.48;;;6.68;;
47762;SDS011;33526;42.690;23.322;2022-07-23T15:03:41;12.75;;;6.13;;
47762;SDS011;33526;42.690;23.322;2022-07-23T15:06:06;9.87;;;4.73;;
47762;SDS011;33526;42.690;23.322;2022-07-23T15:08:32;13.23;;;4.97;;
47762;SDS011;33526;42.690;23.322;2022-07-23T15:10:58;12.88;;;5.18;;
47762;SDS011;33526;42.690;23.322;2022-07-23T15:13:25;15.27;;;4.80;;
47762;SDS011;33526;42.690;23.322;2022-07-23T15:15:50;9.98;;;5.25;;
47762;SDS011;33526;42.690;23.322;2022-07-23T15:18:21;12.17;;;4.87;;
47762;SDS011;33526;42.690;23.322;2022-07-23T15:20:47;14.65;;;4.65;;
47762;SDS011;33526;42.690;23.322;2022-07-23T15:23:12;13.90;;;4.43;;
47762;SDS011;33526;42.690;23.322;2022-07-23T15:25:38;18.23;;;6.27;;
47762;SDS011;33526;42.690;23.322;2022-07-23T15:28:05;15.30;;;4.82;;
47762;SDS011;33526;42.690;23.322;2022-07-23T15:32:56;11.93;;;5.13;;
47762;SDS011;33526;42.690;23.322;2022-07-23T15:35:22;9.55;;;5.10;;
47762;SDS011;33526;42.690;23.322;2022-07-23T15:37:48;10.97;;;4.93;;
47762;SDS011;33526;42.690;23.322;2022-07-23T15:40:14;10.03;;;5.53;;